createdAt,value
2022-12-05T00:03:02.527Z,52.4
2022-12-05T00:08:21.459Z,53.3
2022-12-05T00:13:39.823Z,52.4
2022-12-05T00:18:58.620Z,53.2
2022-12-05T00:24:16.792Z,52.4
2022-12-05T00:29:35.557Z,52.7
2022-12-05T00:34:53.807Z,52.2
2022-12-05T00:40:11.986Z,52.7
2022-12-05T00:45:30.475Z,53
2022-12-05T00:50:48.985Z,52.4
2022-12-05T00:56:06.927Z,52.8
2022-12-05T01:01:25.748Z,52.4
2022-12-05T01:06:44.020Z,53.2
2022-12-05T01:12:02.229Z,52.8
2022-12-05T01:17:20.813Z,52.4
2022-12-05T01:22:39.035Z,52.5
2022-12-05T01:33:28.189Z,52.3
2022-12-05T01:38:46.409Z,52.4
2022-12-05T01:44:04.874Z,52.5
2022-12-05T01:49:23.655Z,53.1
2022-12-05T01:54:42.198Z,52.7
2022-12-05T02:00:01.140Z,53.3
2022-12-05T02:05:19.069Z,53.3
2022-12-05T02:10:37.584Z,53.4
2022-12-05T02:15:57.557Z,53.3
2022-12-05T02:21:15.781Z,53.5
2022-12-05T02:26:34.295Z,53.1
2022-12-05T02:31:52.716Z,53.4
2022-12-05T02:37:11.496Z,53.3
2022-12-05T02:42:30.276Z,53.6
2022-12-05T02:47:48.466Z,52.8
2022-12-05T02:53:06.721Z,53.1
2022-12-05T02:58:25.525Z,52.9
2022-12-05T03:03:43.412Z,53.1
2022-12-05T03:09:01.692Z,53.2
2022-12-05T03:14:20.507Z,53.3
2022-12-05T03:19:38.410Z,52.8
2022-12-05T03:24:57.291Z,53.9
2022-12-05T03:30:15.800Z,52.9
2022-12-05T03:35:34.254Z,53.7
2022-12-05T03:40:52.486Z,53.7
2022-12-05T03:46:10.669Z,52.9
2022-12-05T03:51:29.443Z,54.4
2022-12-05T03:56:47.690Z,52.9
2022-12-05T04:02:06.197Z,53.8
2022-12-05T04:07:24.711Z,52.9
2022-12-05T04:12:42.929Z,53.5
2022-12-05T04:18:01.445Z,54
2022-12-05T04:23:19.915Z,53.7
2022-12-05T04:28:38.703Z,53.4
2022-12-05T04:33:57.496Z,54
2022-12-05T04:39:19.404Z,54
2022-12-05T04:44:21.987Z,53.2
2022-12-05T04:49:40.787Z,53.9
2022-12-05T04:54:58.974Z,53.7
2022-12-05T05:00:17.496Z,53.8
2022-12-05T05:05:36.281Z,54
2022-12-05T05:10:54.745Z,53.4
2022-12-05T05:16:13.194Z,54.1
2022-12-05T05:21:31.703Z,53.8
2022-12-05T05:26:58.242Z,53.3
2022-12-05T05:32:16.471Z,53.4
2022-12-05T05:37:34.711Z,53.2
2022-12-05T05:42:53.158Z,53.5
2022-12-05T05:48:11.647Z,53.2
2022-12-05T05:53:29.902Z,53.6
2022-12-05T05:58:48.370Z,53.4
2022-12-05T06:04:07.593Z,53.6
2022-12-05T06:09:26.296Z,53.6
2022-12-05T06:14:44.482Z,53.7
2022-12-05T06:20:02.702Z,53.7
2022-12-05T06:25:21.251Z,53.5
2022-12-05T06:30:39.690Z,53.4
2022-12-05T06:35:57.923Z,52.7
2022-12-05T06:41:16.725Z,53.7
2022-12-05T06:46:35.171Z,52.8
2022-12-05T06:51:53.387Z,53.6
2022-12-05T06:57:12.250Z,53.5
2022-12-05T07:02:15.095Z,54.1
2022-12-05T07:07:33.744Z,53.2
2022-12-05T07:12:51.686Z,52.9
2022-12-05T07:18:10.148Z,52.9
2022-12-05T07:23:28.613Z,52.1
2022-12-05T07:28:47.161Z,52.2
2022-12-05T07:34:05.328Z,52.8
2022-12-05T07:39:23.262Z,51.9
2022-12-05T07:44:41.520Z,51.8
2022-12-05T07:50:00.737Z,52.2
2022-12-05T07:55:19.410Z,51.8
2022-12-05T08:00:38.204Z,51.8
2022-12-05T08:05:56.380Z,51.6
2022-12-05T08:11:14.883Z,51.7
2022-12-05T08:16:33.717Z,52.5
2022-12-05T08:21:51.630Z,52.9
2022-12-05T08:27:10.102Z,51.6
2022-12-05T08:32:28.896Z,51.7
2022-12-05T08:37:47.082Z,51.7
2022-12-05T08:43:05.293Z,52.3
2022-12-05T08:48:30.100Z,52
2022-12-05T08:53:32.936Z,51.9
2022-12-05T08:58:51.174Z,52
2022-12-05T09:04:12.086Z,51.7
2022-12-05T09:09:30.831Z,52.4
2022-12-05T09:14:49.038Z,51.7
2022-12-05T09:20:07.551Z,52.3
2022-12-05T09:25:25.466Z,52.1
2022-12-05T09:30:44.172Z,51.6
2022-12-05T09:36:02.429Z,51.4
2022-12-05T09:41:21.157Z,51.8
2022-12-05T09:46:39.613Z,51.4
2022-12-05T09:51:58.114Z,52.2
2022-12-05T09:57:16.659Z,51.2
2022-12-05T10:02:34.938Z,51.6
2022-12-05T10:07:53.022Z,51.6
2022-12-05T10:13:11.267Z,51.8
2022-12-05T10:18:29.490Z,51.1
2022-12-05T10:23:59.891Z,52
2022-12-05T10:29:17.946Z,51
2022-12-05T10:34:36.431Z,51.1
2022-12-05T10:39:54.923Z,51
2022-12-05T10:45:13.673Z,51.7
2022-12-05T10:50:32.167Z,51
2022-12-05T10:56:31.225Z,51.7
2022-12-05T11:01:50.408Z,51.6
2022-12-05T11:07:09.555Z,51.8
2022-12-05T11:12:28.330Z,51.8
2022-12-05T11:17:46.785Z,51.9
2022-12-05T11:23:05.546Z,51.1
2022-12-05T11:28:24.353Z,51.5
2022-12-05T11:33:30.644Z,50.8
2022-12-05T11:38:49.086Z,51.3
2022-12-05T11:43:57.249Z,50.8
2022-12-05T11:49:15.413Z,50.9
2022-12-05T11:55:17.855Z,51.6
2022-12-05T12:00:36.197Z,51.6
2022-12-05T12:05:54.675Z,51
2022-12-05T12:10:57.253Z,49.8
2022-12-05T12:16:16.154Z,50.4
2022-12-05T12:21:19.324Z,50.2
2022-12-05T12:26:37.558Z,50.5
2022-12-05T12:31:56.085Z,50.6
2022-12-05T12:37:14.419Z,51.2
2022-12-05T12:42:32.947Z,50.4
2022-12-05T12:47:51.714Z,50.4
2022-12-05T12:53:10.169Z,51.2
2022-12-05T12:58:28.089Z,51.2
2022-12-05T13:03:52.207Z,50.5
2022-12-05T13:09:10.655Z,50.7
2022-12-05T13:14:29.188Z,50.9
2022-12-05T13:19:47.392Z,50.9
2022-12-05T13:25:05.870Z,50.7
2022-12-05T13:30:24.641Z,50.5
2022-12-05T13:35:43.439Z,51
2022-12-05T13:41:01.895Z,51.5
2022-12-05T13:46:20.385Z,51.3
2022-12-05T13:51:38.398Z,51.5
2022-12-05T13:56:56.856Z,50.8
2022-12-05T14:02:15.208Z,50.6
2022-12-05T14:07:33.915Z,50.8
2022-12-05T14:12:52.150Z,51.5
2022-12-05T14:18:10.945Z,50.8
2022-12-05T14:23:29.442Z,50.5
2022-12-05T14:28:47.926Z,51.1
2022-12-05T14:34:06.128Z,50.5
2022-12-05T14:39:24.642Z,50.3
2022-12-05T14:44:43.375Z,50.5
2022-12-05T14:50:03.272Z,50.4
2022-12-05T14:55:27.621Z,50.6
2022-12-05T15:00:48.968Z,51.2
2022-12-05T15:06:07.715Z,50.3
2022-12-05T15:11:26.552Z,50.9
2022-12-05T15:16:45.007Z,50.6
2022-12-05T15:22:03.495Z,51.2
2022-12-05T15:27:21.692Z,51.2
2022-12-05T15:32:39.872Z,50.6
2022-12-05T15:37:58.391Z,51.3
2022-12-05T15:43:16.940Z,51.8
2022-12-05T15:48:35.104Z,50.4
2022-12-05T15:53:53.319Z,50.5
2022-12-05T15:59:11.557Z,50.5
2022-12-05T16:04:30.886Z,51.4
2022-12-05T16:09:49.396Z,51.2
2022-12-05T16:15:07.895Z,50.4
2022-12-05T16:20:26.345Z,50.7
2022-12-05T16:25:45.141Z,50.7
2022-12-05T16:31:03.839Z,51
2022-12-05T16:36:22.044Z,50.8
2022-12-05T16:41:40.528Z,50.9
2022-12-05T16:47:02.544Z,50.6
2022-12-05T16:52:21.081Z,51.4
2022-12-05T16:57:39.304Z,50.8
2022-12-05T17:03:35.781Z,51.2
2022-12-05T17:08:54.288Z,50.5
2022-12-05T17:14:12.755Z,51.1
2022-12-05T17:19:31.297Z,50.3
2022-12-05T17:24:49.467Z,50.8
2022-12-05T17:30:08.283Z,51.4
2022-12-05T17:35:27.065Z,51.2
2022-12-05T17:40:45.252Z,51
2022-12-05T17:46:03.503Z,50.8
2022-12-05T17:51:22.033Z,51.2
2022-12-05T17:56:40.205Z,50.6
2022-12-05T18:01:58.157Z,50.5
2022-12-05T18:07:16.362Z,50.7
2022-12-05T18:12:34.845Z,50.7
2022-12-05T18:17:53.134Z,50.7
2022-12-05T18:23:11.923Z,51.1
2022-12-05T18:28:30.707Z,51.2
2022-12-05T18:33:48.657Z,51
2022-12-05T18:39:06.805Z,51.3
2022-12-05T18:44:25.261Z,51.4
2022-12-05T18:49:43.519Z,52
2022-12-05T18:55:27.094Z,51.3
2022-12-05T19:00:56.735Z,51.9
2022-12-05T19:06:14.958Z,51.9
2022-12-05T19:11:33.761Z,52.1
2022-12-05T19:17:01.170Z,49.1
2022-12-05T19:22:19.644Z,50.3
2022-12-05T19:27:38.142Z,51
2022-12-05T19:32:56.874Z,50.9
2022-12-05T19:38:15.530Z,51.2
2022-12-05T19:43:33.476Z,50.5
2022-12-05T19:48:52.208Z,51.5
2022-12-05T19:54:10.416Z,50.8
2022-12-05T19:59:29.201Z,51.2
2022-12-05T20:04:47.377Z,51.5
2022-12-05T20:10:05.723Z,50.4
2022-12-05T20:15:23.675Z,50.7
2022-12-05T20:20:42.146Z,50.9
2022-12-05T20:26:00.643Z,51.6
2022-12-05T20:31:19.429Z,51
2022-12-05T20:36:38.057Z,51.5
2022-12-05T20:41:56.602Z,51.3
2022-12-05T20:47:14.916Z,51.7
2022-12-05T20:52:33.657Z,51.7
2022-12-05T20:57:51.889Z,51.9
2022-12-05T21:03:17.902Z,51.7
2022-12-05T21:08:36.638Z,51.4
2022-12-05T21:13:55.454Z,51.2
2022-12-05T21:19:13.969Z,51.4
2022-12-05T21:24:32.713Z,51.4
2022-12-05T21:29:50.941Z,52.7
2022-12-05T21:35:09.745Z,51.3
2022-12-05T21:40:28.505Z,52.1
2022-12-05T21:45:53.588Z,51.7
2022-12-05T21:51:12.268Z,51.5
2022-12-05T21:56:30.718Z,51.7
2022-12-05T22:01:49.283Z,52.3
2022-12-05T22:07:07.494Z,52.6
2022-12-05T22:12:25.697Z,52.2
2022-12-05T22:17:43.616Z,52.7
2022-12-05T22:23:02.135Z,52.8
2022-12-05T22:28:20.032Z,52.1
2022-12-05T22:33:37.995Z,52.2
2022-12-05T22:38:55.912Z,52.7
2022-12-05T22:44:14.069Z,52.9
2022-12-05T22:49:32.556Z,52
2022-12-05T22:54:50.894Z,52
2022-12-05T23:00:09.061Z,52.8
2022-12-05T23:05:27.855Z,52.6
2022-12-05T23:10:46.646Z,52.6
2022-12-05T23:16:05.445Z,53
2022-12-05T23:21:23.462Z,52.8
2022-12-05T23:26:42.262Z,52.9
2022-12-05T23:32:01.275Z,52.6
2022-12-05T23:37:19.270Z,52.8
2022-12-05T23:42:37.503Z,53
2022-12-05T23:48:01.756Z,53
2022-12-05T23:53:23.057Z,53.2
2022-12-05T23:58:41.580Z,53.2
